Flight Track Log - Related Links

Times and Time Zones

All times are in EDT time to prevent confusion due to time zone crossing. See the WEW1540 flight status page for this flight to view local times or setup timezone preferences in your user account.

Time Position Orientation Groundspeed Altitude Reporting Facility
EDT Latitude Longitude Course Direction KTS MPH feet Rate Location/Type
Mon 11:48:00 AM 50.5833 -108.0259 322° Northwest  Level FlightAware Approximate
Mon 11:49:00 AM 50.6199 -108.0708 322° Northwest  Level FlightAware Approximate
Mon 11:50:00 AM 50.6565 -108.1158 322° Northwest  Level FlightAware Approximate
Mon 11:51:00 AM 50.6930 -108.1609 322° Northwest  Level FlightAware Approximate
Mon 11:52:00 AM 50.7296 -108.2060 322° Northwest  Level FlightAware Approximate
Mon 11:53:00 AM 50.7661 -108.2513 322° Northwest  Level FlightAware Approximate
Mon 11:54:00 AM 50.8026 -108.2965 322° Northwest  Level FlightAware Approximate
Mon 11:55:00 AM 50.8391 -108.3419 322° Northwest  Level FlightAware Approximate
Mon 11:56:00 AM 50.8756 -108.3873 322° Northwest  Level FlightAware Approximate
Mon 11:57:00 AM 50.9120 -108.4328 322° Northwest  Level FlightAware Approximate
Mon 11:57:05 AM 50.9500 -108.5333 322° Northwest 190 219 8,000  Level Winnipeg Center
Mon 11:58:00 AM 50.9484 -108.4784 322° Northwest  Level FlightAware Approximate
Mon 11:59:00 AM 50.9849 -108.5240 322° Northwest  Level FlightAware Approximate
Mon 11:59:05 AM 51.0333 -108.6333 323° Northwest 200 230 8,000  Level Winnipeg Center
Mon 12:00:00 PM 51.0213 -108.5697 322° Northwest  Level FlightAware Approximate
Mon 12:00:05 PM 51.0667 -108.6667 328° Northwest 180 207 8,000  Level Winnipeg Center
Mon 12:01:00 PM 51.0577 -108.6155 322° Northwest  Level FlightAware Approximate
Mon 12:02:00 PM 51.0940 -108.6613 322° Northwest  Level FlightAware Approximate
Mon 12:02:00 PM 51.1392 -108.7486 325° Northwest  Level Estimated
Mon 12:02:05 PM 51.1333 -108.7667 325° Northwest 170 196 8,000  Level Winnipeg Center
Mon 12:03:05 PM 51.1833 -108.8333 320° Northwest 190 219 7,300 -700 Descending Winnipeg Center
Mon 12:05:00 PM 51.2633 -108.8954 334° Northwest  Level FlightAware Approximate
Mon 12:12:00 PM 51.5000 -109.1667 323° Northwest  Level FlightAware Approximate
Mon 12:13:00 PM 51.5175 -109.1808 323° Northwest  Level Estimated
Mon 12:14:00 PM 51.5175 -109.1808 323° Northwest  Level Estimated
Mon 12:15:00 PM 51.5175 -109.1808 323° Northwest  Level Estimated
Mon 12:16:00 PM 51.5175 -109.1808 323° Northwest  Level Estimated
Mon 12:17:00 PM 51.5175 -109.1808 323° Northwest  Level Estimated
Mon 12:18:00 PM 51.5175 -109.1808 323° Northwest  Level Estimated
Mon 12:19:00 PM 51.5175 -109.1808 323° Northwest  Level Estimated
Mon 12:20:00 PM 51.5175 -109.1808 323° Northwest  Level Estimated
Mon 12:21:00 PM 51.5175 -109.1808 323° Northwest  Level Estimated
Mon 12:22:00 PM 51.5175 -109.1808 323° Northwest  Level Estimated
Mon 12:23:00 PM 51.5175 -109.1808 323° Northwest  Level Estimated
Mon 12:24:00 PM 51.5175 -109.1808 323° Northwest  Level Estimated
Mon 12:25:00 PM 51.5175 -109.1808 323° Northwest  Level Estimated
Mon 12:26:00 PM 51.5175 -109.1808 323° Northwest  Level Estimated
Mon 12:27:00 PM 51.5175 -109.1808 323° Northwest  Level Estimated
Mon 12:28:00 PM 51.5175 -109.1808 323° Northwest  Level Estimated

Login

Don't have an account? Register now (free) for customized features, flight alerts, and more!